sensor_id;sensor_type;location;lat;lon;timestamp;temperature;humidity
48686;DHT22;34485;51.536;3.816;2023-04-15T00:00:03;10.10;99.90
48686;DHT22;34485;51.536;3.816;2023-04-15T00:02:28;10.10;99.90
48686;DHT22;34485;51.536;3.816;2023-04-15T00:04:54;10.00;99.90
48686;DHT22;34485;51.536;3.816;2023-04-15T00:07:20;10.00;99.90
48686;DHT22;34485;51.536;3.816;2023-04-15T00:09:45;10.00;99.90
48686;DHT22;34485;51.536;3.816;2023-04-15T00:12:11;10.00;99.90
48686;DHT22;34485;51.536;3.816;2023-04-15T00:14:37;9.90;99.90
48686;DHT22;34485;51.536;3.816;2023-04-15T00:17:03;9.90;99.90
48686;DHT22;34485;51.536;3.816;2023-04-15T00:19:30;9.80;99.90
48686;DHT22;34485;51.536;3.816;2023-04-15T00:21:56;9.80;99.90
48686;DHT22;34485;51.536;3.816;2023-04-15T00:24:22;9.80;99.90
48686;DHT22;34485;51.536;3.816;2023-04-15T00:26:48;9.80;99.90
48686;DHT22;34485;51.536;3.816;2023-04-15T00:29:14;9.80;99.90
48686;DHT22;34485;51.536;3.816;2023-04-15T00:31:40;9.80;99.90
48686;DHT22;34485;51.536;3.816;2023-04-15T00:34:06;9.70;99.90
48686;DHT22;34485;51.536;3.816;2023-04-15T00:36:32;9.80;99.90
48686;DHT22;34485;51.536;3.816;2023-04-15T00:38:59;9.70;99.90
48686;DHT22;34485;51.536;3.816;2023-04-15T00:41:25;9.80;99.90
48686;DHT22;34485;51.536;3.816;2023-04-15T00:43:51;9.80;99.90
48686;DHT22;34485;51.536;3.816;2023-04-15T00:46:18;9.80;99.90
48686;DHT22;34485;51.536;3.816;2023-04-15T00:48:46;9.80;99.90
48686;DHT22;34485;51.536;3.816;2023-04-15T00:51:12;9.90;99.90
48686;DHT22;34485;51.536;3.816;2023-04-15T00:53:38;9.90;99.90
48686;DHT22;34485;51.536;3.816;2023-04-15T00:56:05;9.90;99.90
48686;DHT22;34485;51.536;3.816;2023-04-15T00:58:31;9.90;99.90
48686;DHT22;34485;51.536;3.816;2023-04-15T01:00:56;9.90;99.90
48686;DHT22;34485;51.536;3.816;2023-04-15T01:03:23;9.80;99.90
48686;DHT22;34485;51.536;3.816;2023-04-15T01:05:49;9.90;99.90
48686;DHT22;34485;51.536;3.816;2023-04-15T01:08:28;9.90;99.90
48686;DHT22;34485;51.536;3.816;2023-04-15T01:11:00;9.90;99.90
48686;DHT22;34485;51.536;3.816;2023-04-15T01:13:26;9.90;99.90
48686;DHT22;34485;51.536;3.816;2023-04-15T01:15:52;10.00;99.90
48686;DHT22;34485;51.536;3.816;2023-04-15T01:18:19;10.00;99.90
48686;DHT22;34485;51.536;3.816;2023-04-15T01:20:45;10.00;99.90
48686;DHT22;34485;51.536;3.816;2023-04-15T01:23:11;10.00;99.90
48686;DHT22;34485;51.536;3.816;2023-04-15T01:25:37;10.00;99.90
48686;DHT22;34485;51.536;3.816;2023-04-15T01:28:03;10.00;99.90
48686;DHT22;34485;51.536;3.816;2023-04-15T01:30:33;9.90;99.90
48686;DHT22;34485;51.536;3.816;2023-04-15T01:32:59;9.90;99.90
48686;DHT22;34485;51.536;3.816;2023-04-15T01:35:24;9.80;99.90
48686;DHT22;34485;51.536;3.816;2023-04-15T01:37:52;9.80;99.90
48686;DHT22;34485;51.536;3.816;2023-04-15T01:40:18;9.90;99.90
48686;DHT22;34485;51.536;3.816;2023-04-15T01:42:45;9.90;99.90
48686;DHT22;34485;51.536;3.816;2023-04-15T01:45:11;9.90;99.90
48686;DHT22;34485;51.536;3.816;2023-04-15T01:47:37;10.00;99.90
48686;DHT22;34485;51.536;3.816;2023-04-15T01:50:04;10.00;99.90
48686;DHT22;34485;51.536;3.816;2023-04-15T01:52:29;10.10;99.90
48686;DHT22;34485;51.536;3.816;2023-04-15T01:54:55;10.10;99.90
48686;DHT22;34485;51.536;3.816;2023-04-15T01:57:20;10.10;99.90
48686;DHT22;34485;51.536;3.816;2023-04-15T01:59:46;10.00;99.90
48686;DHT22;34485;51.536;3.816;2023-04-15T02:02:12;10.00;99.90
48686;DHT22;34485;51.536;3.816;2023-04-15T02:04:37;10.00;99.90
48686;DHT22;34485;51.536;3.816;2023-04-15T02:07:03;9.90;99.90
48686;DHT22;34485;51.536;3.816;2023-04-15T02:09:29;9.90;99.90
48686;DHT22;34485;51.536;3.816;2023-04-15T02:11:55;9.80;99.90
48686;DHT22;34485;51.536;3.816;2023-04-15T02:14:21;9.80;99.90
48686;DHT22;34485;51.536;3.816;2023-04-15T02:16:46;9.70;99.90
48686;DHT22;34485;51.536;3.816;2023-04-15T02:19:12;9.80;99.90
48686;DHT22;34485;51.536;3.816;2023-04-15T02:21:38;9.80;99.90
48686;DHT22;34485;51.536;3.816;2023-04-15T02:24:04;9.80;99.90
48686;DHT22;34485;51.536;3.816;2023-04-15T02:26:30;9.80;99.90
48686;DHT22;34485;51.536;3.816;2023-04-15T02:28:58;9.80;99.90
48686;DHT22;34485;51.536;3.816;2023-04-15T02:31:24;9.80;99.90
48686;DHT22;34485;51.536;3.816;2023-04-15T02:33:50;9.80;99.90
48686;DHT22;34485;51.536;3.816;2023-04-15T02:36:16;9.80;99.90
48686;DHT22;34485;51.536;3.816;2023-04-15T02:38:42;9.80;99.90
48686;DHT22;34485;51.536;3.816;2023-04-15T02:41:08;9.80;99.90
48686;DHT22;34485;51.536;3.816;2023-04-15T02:43:34;9.80;99.90
48686;DHT22;34485;51.536;3.816;2023-04-15T02:46:00;9.80;99.90
48686;DHT22;34485;51.536;3.816;2023-04-15T02:48:26;9.70;99.90
48686;DHT22;34485;51.536;3.816;2023-04-15T02:50:51;9.70;99.90
48686;DHT22;34485;51.536;3.816;2023-04-15T02:53:17;9.70;99.90
48686;DHT22;34485;51.536;3.816;2023-04-15T02:55:44;9.60;99.90
48686;DHT22;34485;51.536;3.816;2023-04-15T02:58:10;9.60;99.90
48686;DHT22;34485;51.536;3.816;2023-04-15T03:00:36;9.60;99.90
48686;DHT22;34485;51.536;3.816;2023-04-15T03:03:03;9.60;99.90
48686;DHT22;34485;51.536;3.816;2023-04-15T03:05:29;9.60;99.90
48686;DHT22;34485;51.536;3.816;2023-04-15T03:07:55;9.60;99.90
48686;DHT22;34485;51.536;3.816;2023-04-15T03:10:21;9.60;99.90
48686;DHT22;34485;51.536;3.816;2023-04-15T03:12:47;9.50;99.90
48686;DHT22;34485;51.536;3.816;2023-04-15T03:15:12;9.50;99.90
48686;DHT22;34485;51.536;3.816;2023-04-15T03:17:38;9.50;99.90
48686;DHT22;34485;51.536;3.816;2023-04-15T03:20:05;9.50;99.90
48686;DHT22;34485;51.536;3.816;2023-04-15T03:22:31;9.50;99.90
48686;DHT22;34485;51.536;3.816;2023-04-15T03:24:57;9.40;99.90
48686;DHT22;34485;51.536;3.816;2023-04-15T03:27:23;9.40;99.90
48686;DHT22;34485;51.536;3.816;2023-04-15T03:29:49;9.20;99.90
48686;DHT22;34485;51.536;3.816;2023-04-15T03:32:16;9.10;99.90
48686;DHT22;34485;51.536;3.816;2023-04-15T03:34:42;9.10;99.90
48686;DHT22;34485;51.536;3.816;2023-04-15T03:37:07;9.00;99.90
48686;DHT22;34485;51.536;3.816;2023-04-15T03:39:33;9.00;99.90
48686;DHT22;34485;51.536;3.816;2023-04-15T03:42:00;9.00;99.90
48686;DHT22;34485;51.536;3.816;2023-04-15T03:44:26;9.00;99.90
48686;DHT22;34485;51.536;3.816;2023-04-15T03:46:52;9.00;99.90
48686;DHT22;34485;51.536;3.816;2023-04-15T03:49:18;9.00;99.90
48686;DHT22;34485;51.536;3.816;2023-04-15T03:51:44;9.00;99.90
48686;DHT22;34485;51.536;3.816;2023-04-15T03:54:09;9.00;99.90
48686;DHT22;34485;51.536;3.816;2023-04-15T03:56:36;9.00;99.90
48686;DHT22;34485;51.536;3.816;2023-04-15T03:59:01;9.00;99.90
48686;DHT22;34485;51.536;3.816;2023-04-15T04:01:27;9.00;99.90
48686;DHT22;34485;51.536;3.816;2023-04-15T04:03:53;9.00;99.90
48686;DHT22;34485;51.536;3.816;2023-04-15T04:06:18;9.00;99.90
48686;DHT22;34485;51.536;3.816;2023-04-15T04:08:44;9.10;99.90
48686;DHT22;34485;51.536;3.816;2023-04-15T04:11:10;9.10;99.90
48686;DHT22;34485;51.536;3.816;2023-04-15T04:13:36;9.10;99.90
48686;DHT22;34485;51.536;3.816;2023-04-15T04:16:02;9.10;99.90
48686;DHT22;34485;51.536;3.816;2023-04-15T04:18:30;9.10;99.90
48686;DHT22;34485;51.536;3.816;2023-04-15T04:20:55;9.10;99.90
48686;DHT22;34485;51.536;3.816;2023-04-15T04:23:21;9.10;99.90
48686;DHT22;34485;51.536;3.816;2023-04-15T04:25:47;9.10;99.90
48686;DHT22;34485;51.536;3.816;2023-04-15T04:28:13;9.00;99.90
48686;DHT22;34485;51.536;3.816;2023-04-15T04:30:39;8.90;99.90
48686;DHT22;34485;51.536;3.816;2023-04-15T04:33:05;8.80;99.90
48686;DHT22;34485;51.536;3.816;2023-04-15T04:35:31;8.80;99.90
48686;DHT22;34485;51.536;3.816;2023-04-15T04:37:59;8.80;99.90
48686;DHT22;34485;51.536;3.816;2023-04-15T04:40:25;8.80;99.90
48686;DHT22;34485;51.536;3.816;2023-04-15T04:42:52;8.80;99.90
48686;DHT22;34485;51.536;3.816;2023-04-15T04:45:18;8.80;99.90
48686;DHT22;34485;51.536;3.816;2023-04-15T04:47:43;8.90;99.90
48686;DHT22;34485;51.536;3.816;2023-04-15T04:50:09;8.80;99.90
48686;DHT22;34485;51.536;3.816;2023-04-15T04:52:35;8.80;99.90
48686;DHT22;34485;51.536;3.816;2023-04-15T04:55:01;8.80;99.90
48686;DHT22;34485;51.536;3.816;2023-04-15T04:57:26;8.80;99.90
48686;DHT22;34485;51.536;3.816;2023-04-15T04:59:52;8.70;99.90
48686;DHT22;34485;51.536;3.816;2023-04-15T05:02:17;8.70;99.90
48686;DHT22;34485;51.536;3.816;2023-04-15T05:04:43;8.80;99.90
48686;DHT22;34485;51.536;3.816;2023-04-15T05:07:08;8.90;99.90
48686;DHT22;34485;51.536;3.816;2023-04-15T05:09:35;8.90;99.90
48686;DHT22;34485;51.536;3.816;2023-04-15T05:12:02;9.00;99.90
48686;DHT22;34485;51.536;3.816;2023-04-15T05:14:28;9.00;99.90
48686;DHT22;34485;51.536;3.816;2023-04-15T05:16:53;9.10;99.90
48686;DHT22;34485;51.536;3.816;2023-04-15T05:19:19;9.20;99.90
48686;DHT22;34485;51.536;3.816;2023-04-15T05:21:44;9.20;99.90
48686;DHT22;34485;51.536;3.816;2023-04-15T05:24:10;9.20;99.90
48686;DHT22;34485;51.536;3.816;2023-04-15T05:26:35;9.20;99.90
48686;DHT22;34485;51.536;3.816;2023-04-15T05:29:01;9.20;99.90
48686;DHT22;34485;51.536;3.816;2023-04-15T05:31:27;9.20;99.90
48686;DHT22;34485;51.536;3.816;2023-04-15T05:33:53;9.20;99.90
48686;DHT22;34485;51.536;3.816;2023-04-15T05:36:18;9.20;99.90
48686;DHT22;34485;51.536;3.816;2023-04-15T05:38:44;9.20;99.90
48686;DHT22;34485;51.536;3.816;2023-04-15T05:41:10;9.20;99.90
48686;DHT22;34485;51.536;3.816;2023-04-15T05:43:35;9.20;99.90
48686;DHT22;34485;51.536;3.816;2023-04-15T05:46:01;9.20;99.90
48686;DHT22;34485;51.536;3.816;2023-04-15T05:48:26;9.20;99.90
48686;DHT22;34485;51.536;3.816;2023-04-15T05:50:52;9.30;99.90
48686;DHT22;34485;51.536;3.816;2023-04-15T06:05:29;9.50;99.90
48686;DHT22;34485;51.536;3.816;2023-04-15T06:07:54;9.60;99.90
48686;DHT22;34485;51.536;3.816;2023-04-15T06:10:20;9.60;99.90
48686;DHT22;34485;51.536;3.816;2023-04-15T06:15:11;9.70;99.90
48686;DHT22;34485;51.536;3.816;2023-04-15T06:17:37;9.50;99.90
48686;DHT22;34485;51.536;3.816;2023-04-15T06:20:03;9.50;99.90
48686;DHT22;34485;51.536;3.816;2023-04-15T06:22:29;9.60;99.90
48686;DHT22;34485;51.536;3.816;2023-04-15T06:24:55;9.60;99.90
48686;DHT22;34485;51.536;3.816;2023-04-15T06:27:20;9.60;99.90
48686;DHT22;34485;51.536;3.816;2023-04-15T06:29:47;9.60;99.90
48686;DHT22;34485;51.536;3.816;2023-04-15T06:32:13;9.70;99.90
48686;DHT22;34485;51.536;3.816;2023-04-15T06:34:38;9.70;99.90
48686;DHT22;34485;51.536;3.816;2023-04-15T06:37:04;9.80;99.90
48686;DHT22;34485;51.536;3.816;2023-04-15T06:39:30;9.90;99.90
48686;DHT22;34485;51.536;3.816;2023-04-15T06:41:56;10.10;99.90
48686;DHT22;34485;51.536;3.816;2023-04-15T06:44:22;10.20;99.90
48686;DHT22;34485;51.536;3.816;2023-04-15T06:46:48;10.20;99.90
48686;DHT22;34485;51.536;3.816;2023-04-15T06:49:13;10.30;99.90
48686;DHT22;34485;51.536;3.816;2023-04-15T06:51:40;10.40;99.90
48686;DHT22;34485;51.536;3.816;2023-04-15T06:54:06;10.40;99.90
48686;DHT22;34485;51.536;3.816;2023-04-15T06:56:32;10.50;99.90
48686;DHT22;34485;51.536;3.816;2023-04-15T06:58:58;10.60;99.90
48686;DHT22;34485;51.536;3.816;2023-04-15T07:01:23;10.60;99.90
48686;DHT22;34485;51.536;3.816;2023-04-15T07:03:49;10.50;99.90
48686;DHT22;34485;51.536;3.816;2023-04-15T07:06:15;10.60;99.90
48686;DHT22;34485;51.536;3.816;2023-04-15T07:08:40;10.60;99.90
48686;DHT22;34485;51.536;3.816;2023-04-15T07:11:07;10.70;99.90
48686;DHT22;34485;51.536;3.816;2023-04-15T07:13:33;10.90;99.90
48686;DHT22;34485;51.536;3.816;2023-04-15T07:15:58;11.00;99.90
48686;DHT22;34485;51.536;3.816;2023-04-15T07:18:24;11.20;99.90
48686;DHT22;34485;51.536;3.816;2023-04-15T07:20:50;11.30;99.90
48686;DHT22;34485;51.536;3.816;2023-04-15T07:23:16;11.30;99.90
48686;DHT22;34485;51.536;3.816;2023-04-15T07:25:41;11.60;99.90
48686;DHT22;34485;51.536;3.816;2023-04-15T07:28:07;12.10;99.90
48686;DHT22;34485;51.536;3.816;2023-04-15T07:33:00;13.00;97.10
48686;DHT22;34485;51.536;3.816;2023-04-15T07:35:26;13.60;96.60
48686;DHT22;34485;51.536;3.816;2023-04-15T07:37:52;13.90;93.90
48686;DHT22;34485;51.536;3.816;2023-04-15T07:40:18;14.20;93.90
48686;DHT22;34485;51.536;3.816;2023-04-15T07:42:44;14.50;92.80
48686;DHT22;34485;51.536;3.816;2023-04-15T07:45:10;14.60;93.90
48686;DHT22;34485;51.536;3.816;2023-04-15T07:47:36;14.90;91.30
48686;DHT22;34485;51.536;3.816;2023-04-15T07:50:01;15.10;90.70
48686;DHT22;34485;51.536;3.816;2023-04-15T07:52:27;15.00;90.50
48686;DHT22;34485;51.536;3.816;2023-04-15T07:54:53;15.20;90.60
48686;DHT22;34485;51.536;3.816;2023-04-15T07:57:19;15.40;88.50
48686;DHT22;34485;51.536;3.816;2023-04-15T07:59:44;15.50;89.80
48686;DHT22;34485;51.536;3.816;2023-04-15T08:02:10;15.30;89.50
48686;DHT22;34485;51.536;3.816;2023-04-15T08:04:36;14.80;90.70
48686;DHT22;34485;51.536;3.816;2023-04-15T08:07:02;14.40;91.30
48686;DHT22;34485;51.536;3.816;2023-04-15T08:09:29;13.90;93.00
48686;DHT22;34485;51.536;3.816;2023-04-15T08:11:55;13.70;94.60
48686;DHT22;34485;51.536;3.816;2023-04-15T08:14:21;13.50;94.40
48686;DHT22;34485;51.536;3.816;2023-04-15T08:16:47;13.40;95.70
48686;DHT22;34485;51.536;3.816;2023-04-15T08:21:38;13.30;94.80
48686;DHT22;34485;51.536;3.816;2023-04-15T08:24:05;13.30;95.30
48686;DHT22;34485;51.536;3.816;2023-04-15T08:26:31;13.20;94.90
48686;DHT22;34485;51.536;3.816;2023-04-15T08:28:57;13.30;96.00
48686;DHT22;34485;51.536;3.816;2023-04-15T08:31:23;13.40;96.40
48686;DHT22;34485;51.536;3.816;2023-04-15T08:33:48;13.50;93.90
48686;DHT22;34485;51.536;3.816;2023-04-15T08:36:16;13.50;94.50
48686;DHT22;34485;51.536;3.816;2023-04-15T08:38:43;13.70;94.50
48686;DHT22;34485;51.536;3.816;2023-04-15T08:41:23;14.00;95.40
48686;DHT22;34485;51.536;3.816;2023-04-15T08:44:03;14.60;94.40
48686;DHT22;34485;51.536;3.816;2023-04-15T08:46:30;15.30;93.10
48686;DHT22;34485;51.536;3.816;2023-04-15T08:48:57;15.90;92.30
48686;DHT22;34485;51.536;3.816;2023-04-15T08:51:23;16.30;90.70
48686;DHT22;34485;51.536;3.816;2023-04-15T08:53:49;16.50;90.10
48686;DHT22;34485;51.536;3.816;2023-04-15T08:56:15;16.50;87.20
48686;DHT22;34485;51.536;3.816;2023-04-15T08:58:43;16.30;88.70
48686;DHT22;34485;51.536;3.816;2023-04-15T09:01:11;16.30;86.80
48686;DHT22;34485;51.536;3.816;2023-04-15T09:03:38;16.40;86.90
48686;DHT22;34485;51.536;3.816;2023-04-15T09:06:06;16.50;84.70
48686;DHT22;34485;51.536;3.816;2023-04-15T09:08:32;16.50;86.60
48686;DHT22;34485;51.536;3.816;2023-04-15T09:11:01;16.80;88.80
48686;DHT22;34485;51.536;3.816;2023-04-15T09:13:27;17.00;84.30
48686;DHT22;34485;51.536;3.816;2023-04-15T09:15:54;17.00;82.70
48686;DHT22;34485;51.536;3.816;2023-04-15T09:18:30;16.90;85.20
48686;DHT22;34485;51.536;3.816;2023-04-15T09:21:07;17.00;84.10
48686;DHT22;34485;51.536;3.816;2023-04-15T09:23:35;16.80;81.60
48686;DHT22;34485;51.536;3.816;2023-04-15T09:26:02;16.70;82.30
48686;DHT22;34485;51.536;3.816;2023-04-15T09:28:28;16.80;82.80
48686;DHT22;34485;51.536;3.816;2023-04-15T09:31:01;16.80;83.80
48686;DHT22;34485;51.536;3.816;2023-04-15T09:33:28;17.10;80.30
48686;DHT22;34485;51.536;3.816;2023-04-15T09:36:02;17.20;79.30
48686;DHT22;34485;51.536;3.816;2023-04-15T09:38:29;17.30;79.30
48686;DHT22;34485;51.536;3.816;2023-04-15T09:40:56;17.50;82.30
48686;DHT22;34485;51.536;3.816;2023-04-15T09:43:22;17.30;79.40
48686;DHT22;34485;51.536;3.816;2023-04-15T09:46:01;17.30;82.60
48686;DHT22;34485;51.536;3.816;2023-04-15T09:48:26;17.30;78.50
48686;DHT22;34485;51.536;3.816;2023-04-15T09:50:57;17.30;83.10
48686;DHT22;34485;51.536;3.816;2023-04-15T09:53:24;17.50;80.70
48686;DHT22;34485;51.536;3.816;2023-04-15T09:55:55;17.60;77.40
48686;DHT22;34485;51.536;3.816;2023-04-15T10:00:49;17.80;77.50
48686;DHT22;34485;51.536;3.816;2023-04-15T10:03:22;17.70;75.80
48686;DHT22;34485;51.536;3.816;2023-04-15T10:05:49;17.50;77.70
48686;DHT22;34485;51.536;3.816;2023-04-15T10:08:18;17.60;79.90
48686;DHT22;34485;51.536;3.816;2023-04-15T10:10:46;17.60;79.00
48686;DHT22;34485;51.536;3.816;2023-04-15T10:13:20;17.70;76.20
48686;DHT22;34485;51.536;3.816;2023-04-15T10:15:56;17.70;80.90
48686;DHT22;34485;51.536;3.816;2023-04-15T10:18:24;17.70;82.20
48686;DHT22;34485;51.536;3.816;2023-04-15T10:20:51;17.80;78.90
48686;DHT22;34485;51.536;3.816;2023-04-15T10:23:17;17.80;77.60
48686;DHT22;34485;51.536;3.816;2023-04-15T10:25:44;17.90;75.40
48686;DHT22;34485;51.536;3.816;2023-04-15T10:28:10;18.00;79.70
48686;DHT22;34485;51.536;3.816;2023-04-15T10:30:36;18.20;76.20
48686;DHT22;34485;51.536;3.816;2023-04-15T10:33:02;18.00;75.30
48686;DHT22;34485;51.536;3.816;2023-04-15T10:35:30;18.00;73.40
48686;DHT22;34485;51.536;3.816;2023-04-15T10:37:56;17.80;75.90
48686;DHT22;34485;51.536;3.816;2023-04-15T10:40:31;17.90;79.40
48686;DHT22;34485;51.536;3.816;2023-04-15T10:43:00;18.10;76.30
48686;DHT22;34485;51.536;3.816;2023-04-15T10:45:36;18.30;74.70
48686;DHT22;34485;51.536;3.816;2023-04-15T10:48:04;18.50;76.00
48686;DHT22;34485;51.536;3.816;2023-04-15T10:50:31;18.40;72.20
48686;DHT22;34485;51.536;3.816;2023-04-15T10:52:57;18.40;74.50
48686;DHT22;34485;51.536;3.816;2023-04-15T10:55:31;18.30;73.60
48686;DHT22;34485;51.536;3.816;2023-04-15T10:57:59;18.30;73.70
48686;DHT22;34485;51.536;3.816;2023-04-15T11:00:29;18.30;71.40
48686;DHT22;34485;51.536;3.816;2023-04-15T11:03:07;18.20;71.80
48686;DHT22;34485;51.536;3.816;2023-04-15T11:05:49;18.20;74.20
48686;DHT22;34485;51.536;3.816;2023-04-15T11:08:15;18.20;72.00
48686;DHT22;34485;51.536;3.816;2023-04-15T11:15:40;18.00;63.60
48686;DHT22;34485;51.536;3.816;2023-04-15T11:18:16;17.80;65.30
48686;DHT22;34485;51.536;3.816;2023-04-15T11:23:16;17.70;67.50
48686;DHT22;34485;51.536;3.816;2023-04-15T11:25:42;17.80;67.50
48686;DHT22;34485;51.536;3.816;2023-04-15T11:28:08;17.80;65.30
48686;DHT22;34485;51.536;3.816;2023-04-15T11:30:36;17.60;65.70
48686;DHT22;34485;51.536;3.816;2023-04-15T11:33:07;17.70;66.00
48686;DHT22;34485;51.536;3.816;2023-04-15T11:35:33;17.60;63.30
48686;DHT22;34485;51.536;3.816;2023-04-15T11:38:08;17.50;66.70
48686;DHT22;34485;51.536;3.816;2023-04-15T11:40:35;17.70;66.50
48686;DHT22;34485;51.536;3.816;2023-04-15T11:43:11;17.60;66.80
48686;DHT22;34485;51.536;3.816;2023-04-15T11:45:47;17.60;83.20
48686;DHT22;34485;51.536;3.816;2023-04-15T11:48:13;17.30;84.50
48686;DHT22;34485;51.536;3.816;2023-04-15T11:50:39;17.10;85.20
48686;DHT22;34485;51.536;3.816;2023-04-15T11:53:07;16.90;85.30
48686;DHT22;34485;51.536;3.816;2023-04-15T11:55:46;16.90;87.50
48686;DHT22;34485;51.536;3.816;2023-04-15T11:58:14;17.00;88.00
48686;DHT22;34485;51.536;3.816;2023-04-15T12:06:13;16.50;89.40
48686;DHT22;34485;51.536;3.816;2023-04-15T12:09:04;16.40;88.80
48686;DHT22;34485;51.536;3.816;2023-04-15T12:11:43;16.40;87.40
48686;DHT22;34485;51.536;3.816;2023-04-15T12:14:10;16.20;86.00
48686;DHT22;34485;51.536;3.816;2023-04-15T12:16:39;16.00;89.60
48686;DHT22;34485;51.536;3.816;2023-04-15T12:19:08;15.90;89.80
48686;DHT22;34485;51.536;3.816;2023-04-15T12:21:36;16.00;89.70
48686;DHT22;34485;51.536;3.816;2023-04-15T12:24:04;15.90;87.30
48686;DHT22;34485;51.536;3.816;2023-04-15T12:26:44;15.80;89.80
48686;DHT22;34485;51.536;3.816;2023-04-15T12:29:11;15.80;91.30
48686;DHT22;34485;51.536;3.816;2023-04-15T12:31:46;15.70;88.40
48686;DHT22;34485;51.536;3.816;2023-04-15T12:34:13;15.50;90.80
48686;DHT22;34485;51.536;3.816;2023-04-15T12:36:39;15.50;91.50
48686;DHT22;34485;51.536;3.816;2023-04-15T12:39:05;15.60;90.80
48686;DHT22;34485;51.536;3.816;2023-04-15T12:41:31;15.60;93.00
48686;DHT22;34485;51.536;3.816;2023-04-15T12:43:57;15.50;90.20
48686;DHT22;34485;51.536;3.816;2023-04-15T12:46:24;15.30;91.80
48686;DHT22;34485;51.536;3.816;2023-04-15T12:48:50;15.20;90.50
48686;DHT22;34485;51.536;3.816;2023-04-15T12:51:18;15.10;92.30
48686;DHT22;34485;51.536;3.816;2023-04-15T12:53:45;15.00;92.00
48686;DHT22;34485;51.536;3.816;2023-04-15T12:56:12;15.00;92.10
48686;DHT22;34485;51.536;3.816;2023-04-15T12:58:37;15.10;93.60
48686;DHT22;34485;51.536;3.816;2023-04-15T13:01:03;15.20;92.80
48686;DHT22;34485;51.536;3.816;2023-04-15T13:03:29;15.10;93.80
48686;DHT22;34485;51.536;3.816;2023-04-15T13:05:54;15.10;93.70
48686;DHT22;34485;51.536;3.816;2023-04-15T13:08:22;15.00;94.00
48686;DHT22;34485;51.536;3.816;2023-04-15T13:10:47;14.90;94.40
48686;DHT22;34485;51.536;3.816;2023-04-15T13:13:13;15.00;94.90
48686;DHT22;34485;51.536;3.816;2023-04-15T13:15:39;15.10;94.20
48686;DHT22;34485;51.536;3.816;2023-04-15T13:18:06;14.90;92.40
48686;DHT22;34485;51.536;3.816;2023-04-15T13:20:31;14.80;93.00
48686;DHT22;34485;51.536;3.816;2023-04-15T13:22:57;14.80;94.50
48686;DHT22;34485;51.536;3.816;2023-04-15T13:25:23;15.00;95.10
48686;DHT22;34485;51.536;3.816;2023-04-15T13:27:49;14.90;92.90
48686;DHT22;34485;51.536;3.816;2023-04-15T13:30:14;14.80;93.10
48686;DHT22;34485;51.536;3.816;2023-04-15T13:32:40;14.70;92.90
48686;DHT22;34485;51.536;3.816;2023-04-15T13:35:06;14.60;93.80
48686;DHT22;34485;51.536;3.816;2023-04-15T13:37:31;14.70;94.80
48686;DHT22;34485;51.536;3.816;2023-04-15T13:39:57;14.60;94.90
48686;DHT22;34485;51.536;3.816;2023-04-15T13:42:23;14.50;94.70
48686;DHT22;34485;51.536;3.816;2023-04-15T13:44:49;14.50;94.30
48686;DHT22;34485;51.536;3.816;2023-04-15T13:47:16;14.50;95.80
48686;DHT22;34485;51.536;3.816;2023-04-15T13:49:42;14.40;94.80
48686;DHT22;34485;51.536;3.816;2023-04-15T13:52:08;14.30;94.60
48686;DHT22;34485;51.536;3.816;2023-04-15T13:54:34;14.30;95.70
48686;DHT22;34485;51.536;3.816;2023-04-15T13:56:59;14.20;93.60
48686;DHT22;34485;51.536;3.816;2023-04-15T13:59:26;14.20;94.60
48686;DHT22;34485;51.536;3.816;2023-04-15T14:01:52;14.10;93.40
48686;DHT22;34485;51.536;3.816;2023-04-15T14:04:17;14.00;95.10
48686;DHT22;34485;51.536;3.816;2023-04-15T14:06:43;14.00;93.70
48686;DHT22;34485;51.536;3.816;2023-04-15T14:09:09;13.90;93.50
48686;DHT22;34485;51.536;3.816;2023-04-15T14:11:36;13.90;95.40
48686;DHT22;34485;51.536;3.816;2023-04-15T14:14:02;13.90;95.50
48686;DHT22;34485;51.536;3.816;2023-04-15T14:16:28;13.90;96.90
48686;DHT22;34485;51.536;3.816;2023-04-15T14:18:53;14.00;98.20
48686;DHT22;34485;51.536;3.816;2023-04-15T14:21:19;13.90;95.10
48686;DHT22;34485;51.536;3.816;2023-04-15T14:23:45;13.80;95.30
48686;DHT22;34485;51.536;3.816;2023-04-15T14:26:10;13.90;97.40
48686;DHT22;34485;51.536;3.816;2023-04-15T14:28:36;13.80;95.20
48686;DHT22;34485;51.536;3.816;2023-04-15T14:31:03;13.80;94.80
48686;DHT22;34485;51.536;3.816;2023-04-15T14:33:29;13.70;96.60
48686;DHT22;34485;51.536;3.816;2023-04-15T14:35:55;13.60;95.80
48686;DHT22;34485;51.536;3.816;2023-04-15T14:38:20;13.70;96.50
48686;DHT22;34485;51.536;3.816;2023-04-15T14:40:47;13.70;94.40
48686;DHT22;34485;51.536;3.816;2023-04-15T14:43:12;13.70;94.00
48686;DHT22;34485;51.536;3.816;2023-04-15T14:45:38;13.70;94.50
48686;DHT22;34485;51.536;3.816;2023-04-15T14:48:04;13.80;96.80
48686;DHT22;34485;51.536;3.816;2023-04-15T14:50:30;13.80;93.30
48686;DHT22;34485;51.536;3.816;2023-04-15T14:52:57;13.60;93.80
48686;DHT22;34485;51.536;3.816;2023-04-15T14:55:23;13.40;94.40
48686;DHT22;34485;51.536;3.816;2023-04-15T14:57:48;13.50;94.30
48686;DHT22;34485;51.536;3.816;2023-04-15T15:00:14;13.50;93.60
48686;DHT22;34485;51.536;3.816;2023-04-15T15:02:40;13.50;93.70
48686;DHT22;34485;51.536;3.816;2023-04-15T15:05:07;13.50;94.70
48686;DHT22;34485;51.536;3.816;2023-04-15T15:07:32;13.50;92.90
48686;DHT22;34485;51.536;3.816;2023-04-15T15:09:58;13.50;93.30
48686;DHT22;34485;51.536;3.816;2023-04-15T15:12:24;13.60;93.40
48686;DHT22;34485;51.536;3.816;2023-04-15T15:14:49;13.60;92.80
48686;DHT22;34485;51.536;3.816;2023-04-15T15:17:15;13.60;91.60
48686;DHT22;34485;51.536;3.816;2023-04-15T15:19:41;13.50;89.80
48686;DHT22;34485;51.536;3.816;2023-04-15T15:22:06;13.50;89.30
48686;DHT22;34485;51.536;3.816;2023-04-15T15:24:32;13.40;92.30
48686;DHT22;34485;51.536;3.816;2023-04-15T15:26:58;13.30;92.60
48686;DHT22;34485;51.536;3.816;2023-04-15T15:29:24;13.30;92.20
48686;DHT22;34485;51.536;3.816;2023-04-15T15:31:49;13.20;93.10
48686;DHT22;34485;51.536;3.816;2023-04-15T15:34:15;13.20;92.70
48686;DHT22;34485;51.536;3.816;2023-04-15T15:36:41;13.10;94.30
48686;DHT22;34485;51.536;3.816;2023-04-15T15:39:07;13.10;94.30
48686;DHT22;34485;51.536;3.816;2023-04-15T15:41:32;13.00;93.30
48686;DHT22;34485;51.536;3.816;2023-04-15T15:43:58;13.00;94.30
48686;DHT22;34485;51.536;3.816;2023-04-15T15:46:25;13.00;93.50
48686;DHT22;34485;51.536;3.816;2023-04-15T15:48:52;12.90;93.50
48686;DHT22;34485;51.536;3.816;2023-04-15T15:51:18;12.90;95.00
48686;DHT22;34485;51.536;3.816;2023-04-15T15:53:44;12.80;96.70
48686;DHT22;34485;51.536;3.816;2023-04-15T15:56:10;12.90;97.50
48686;DHT22;34485;51.536;3.816;2023-04-15T15:58:35;12.90;97.00
48686;DHT22;34485;51.536;3.816;2023-04-15T16:01:01;12.90;95.90
48686;DHT22;34485;51.536;3.816;2023-04-15T16:03:27;12.70;95.70
48686;DHT22;34485;51.536;3.816;2023-04-15T16:05:52;12.70;98.00
48686;DHT22;34485;51.536;3.816;2023-04-15T16:08:18;12.60;98.20